sensor_id;sensor_type;location;lat;lon;timestamp;temperature;humidity
9768;DHT22;4923;52.520;13.494;2023-04-25T00:01:52;8.80;14.70
9768;DHT22;4923;52.520;13.494;2023-04-25T00:04:39;8.70;11.50
9768;DHT22;4923;52.520;13.494;2023-04-25T00:07:26;8.70;8.60
9768;DHT22;4923;52.520;13.494;2023-04-25T00:10:13;8.60;8.50
9768;DHT22;4923;52.520;13.494;2023-04-25T00:13:00;8.60;5.00
9768;DHT22;4923;52.520;13.494;2023-04-25T00:15:48;8.70;1.00
9768;DHT22;4923;52.520;13.494;2023-04-25T00:18:37;8.60;1.00
9768;DHT22;4923;52.520;13.494;2023-04-25T00:21:24;8.70;1.00
9768;DHT22;4923;52.520;13.494;2023-04-25T00:24:11;8.70;1.00
9768;DHT22;4923;52.520;13.494;2023-04-25T00:26:58;8.70;3.20
9768;DHT22;4923;52.520;13.494;2023-04-25T00:29:45;8.80;1.00
9768;DHT22;4923;52.520;13.494;2023-04-25T00:32:32;8.70;1.00
9768;DHT22;4923;52.520;13.494;2023-04-25T00:35:20;8.70;1.00
9768;DHT22;4923;52.520;13.494;2023-04-25T00:38:07;8.80;1.00
9768;DHT22;4923;52.520;13.494;2023-04-25T00:40:53;8.80;1.00
9768;DHT22;4923;52.520;13.494;2023-04-25T00:43:41;8.80;1.00
9768;DHT22;4923;52.520;13.494;2023-04-25T00:46:29;8.80;1.00
9768;DHT22;4923;52.520;13.494;2023-04-25T00:49:16;8.80;1.00
9768;DHT22;4923;52.520;13.494;2023-04-25T00:52:04;8.80;1.00
9768;DHT22;4923;52.520;13.494;2023-04-25T00:54:51;8.80;1.00
9768;DHT22;4923;52.520;13.494;2023-04-25T00:57:39;8.80;1.00
9768;DHT22;4923;52.520;13.494;2023-04-25T01:00:26;8.80;1.00
9768;DHT22;4923;52.520;13.494;2023-04-25T01:03:13;8.80;1.00
9768;DHT22;4923;52.520;13.494;2023-04-25T01:06:01;8.80;1.00
9768;DHT22;4923;52.520;13.494;2023-04-25T01:08:51;8.70;1.00
9768;DHT22;4923;52.520;13.494;2023-04-25T01:11:38;8.70;1.00
9768;DHT22;4923;52.520;13.494;2023-04-25T01:14:25;8.70;1.00
9768;DHT22;4923;52.520;13.494;2023-04-25T01:17:13;8.70;1.00
9768;DHT22;4923;52.520;13.494;2023-04-25T01:20:03;8.70;1.00
9768;DHT22;4923;52.520;13.494;2023-04-25T01:22:52;8.70;1.00
9768;DHT22;4923;52.520;13.494;2023-04-25T01:25:40;8.70;1.00
9768;DHT22;4923;52.520;13.494;2023-04-25T01:28:27;8.70;1.00
9768;DHT22;4923;52.520;13.494;2023-04-25T01:31:15;8.70;1.00
9768;DHT22;4923;52.520;13.494;2023-04-25T01:34:02;8.80;1.00
9768;DHT22;4923;52.520;13.494;2023-04-25T01:36:50;8.80;1.00
9768;DHT22;4923;52.520;13.494;2023-04-25T01:39:38;8.80;1.00
9768;DHT22;4923;52.520;13.494;2023-04-25T01:42:25;8.80;1.00
9768;DHT22;4923;52.520;13.494;2023-04-25T01:45:12;8.80;1.00
9768;DHT22;4923;52.520;13.494;2023-04-25T01:47:59;8.90;1.00
9768;DHT22;4923;52.520;13.494;2023-04-25T01:50:48;8.80;1.00
9768;DHT22;4923;52.520;13.494;2023-04-25T01:53:35;8.90;1.00
9768;DHT22;4923;52.520;13.494;2023-04-25T01:56:24;8.90;1.00
9768;DHT22;4923;52.520;13.494;2023-04-25T01:59:11;8.90;1.00
9768;DHT22;4923;52.520;13.494;2023-04-25T02:01:58;8.90;1.00
9768;DHT22;4923;52.520;13.494;2023-04-25T02:04:45;8.90;1.00
9768;DHT22;4923;52.520;13.494;2023-04-25T02:07:32;8.90;1.00
9768;DHT22;4923;52.520;13.494;2023-04-25T02:10:19;8.90;1.00
9768;DHT22;4923;52.520;13.494;2023-04-25T02:13:07;8.90;1.00
9768;DHT22;4923;52.520;13.494;2023-04-25T02:15:54;8.90;1.00
9768;DHT22;4923;52.520;13.494;2023-04-25T02:18:41;9.00;1.00
9768;DHT22;4923;52.520;13.494;2023-04-25T02:21:28;9.00;1.00
9768;DHT22;4923;52.520;13.494;2023-04-25T02:24:16;9.00;1.00
9768;DHT22;4923;52.520;13.494;2023-04-25T02:27:02;9.10;1.00
9768;DHT22;4923;52.520;13.494;2023-04-25T02:29:51;9.10;1.00
9768;DHT22;4923;52.520;13.494;2023-04-25T02:32:38;9.10;1.00
9768;DHT22;4923;52.520;13.494;2023-04-25T02:35:25;9.00;1.00
9768;DHT22;4923;52.520;13.494;2023-04-25T02:38:11;9.00;1.00
9768;DHT22;4923;52.520;13.494;2023-04-25T02:40:59;9.00;1.00
9768;DHT22;4923;52.520;13.494;2023-04-25T02:43:46;9.00;1.00
9768;DHT22;4923;52.520;13.494;2023-04-25T02:46:34;9.00;1.00
9768;DHT22;4923;52.520;13.494;2023-04-25T02:49:21;9.00;1.00
9768;DHT22;4923;52.520;13.494;2023-04-25T02:52:08;9.00;1.00
9768;DHT22;4923;52.520;13.494;2023-04-25T02:54:55;9.00;1.00
9768;DHT22;4923;52.520;13.494;2023-04-25T02:57:42;9.00;1.00
9768;DHT22;4923;52.520;13.494;2023-04-25T03:00:29;9.00;1.00
9768;DHT22;4923;52.520;13.494;2023-04-25T03:03:17;9.00;1.00
9768;DHT22;4923;52.520;13.494;2023-04-25T03:06:07;9.00;1.00
9768;DHT22;4923;52.520;13.494;2023-04-25T03:08:53;8.90;1.00
9768;DHT22;4923;52.520;13.494;2023-04-25T03:11:40;8.90;1.00
9768;DHT22;4923;52.520;13.494;2023-04-25T03:14:27;9.00;1.00
9768;DHT22;4923;52.520;13.494;2023-04-25T03:17:14;9.00;1.00
9768;DHT22;4923;52.520;13.494;2023-04-25T03:20:03;9.00;1.00
9768;DHT22;4923;52.520;13.494;2023-04-25T03:22:50;8.90;1.00
9768;DHT22;4923;52.520;13.494;2023-04-25T03:25:37;9.00;1.00
9768;DHT22;4923;52.520;13.494;2023-04-25T03:28:24;9.00;1.00
9768;DHT22;4923;52.520;13.494;2023-04-25T03:31:11;9.00;1.00
9768;DHT22;4923;52.520;13.494;2023-04-25T03:33:58;8.90;1.00
9768;DHT22;4923;52.520;13.494;2023-04-25T03:36:46;8.90;1.00
9768;DHT22;4923;52.520;13.494;2023-04-25T03:39:33;8.90;1.00
9768;DHT22;4923;52.520;13.494;2023-04-25T03:42:20;8.90;1.00
9768;DHT22;4923;52.520;13.494;2023-04-25T03:45:08;8.90;1.00
9768;DHT22;4923;52.520;13.494;2023-04-25T03:47:55;8.90;1.00
9768;DHT22;4923;52.520;13.494;2023-04-25T03:50:42;9.00;1.00
9768;DHT22;4923;52.520;13.494;2023-04-25T03:53:30;8.90;1.00
9768;DHT22;4923;52.520;13.494;2023-04-25T03:56:17;8.90;1.00
9768;DHT22;4923;52.520;13.494;2023-04-25T03:59:04;8.90;1.00
9768;DHT22;4923;52.520;13.494;2023-04-25T04:01:51;8.90;1.00
9768;DHT22;4923;52.520;13.494;2023-04-25T04:04:38;8.90;1.00
9768;DHT22;4923;52.520;13.494;2023-04-25T04:07:25;8.90;1.00
9768;DHT22;4923;52.520;13.494;2023-04-25T04:10:13;8.90;1.00
9768;DHT22;4923;52.520;13.494;2023-04-25T04:13:00;8.80;1.00
9768;DHT22;4923;52.520;13.494;2023-04-25T04:15:46;8.70;1.00
9768;DHT22;4923;52.520;13.494;2023-04-25T04:18:33;8.70;1.00
9768;DHT22;4923;52.520;13.494;2023-04-25T04:21:21;8.70;1.00
9768;DHT22;4923;52.520;13.494;2023-04-25T04:24:08;8.70;1.00
9768;DHT22;4923;52.520;13.494;2023-04-25T04:26:57;8.70;1.00
9768;DHT22;4923;52.520;13.494;2023-04-25T04:29:45;8.70;1.00
9768;DHT22;4923;52.520;13.494;2023-04-25T04:32:32;8.70;1.00
9768;DHT22;4923;52.520;13.494;2023-04-25T04:35:20;8.70;1.00
9768;DHT22;4923;52.520;13.494;2023-04-25T04:38:07;8.70;1.00
9768;DHT22;4923;52.520;13.494;2023-04-25T04:40:54;8.70;1.00
9768;DHT22;4923;52.520;13.494;2023-04-25T04:43:42;8.70;1.00
9768;DHT22;4923;52.520;13.494;2023-04-25T04:46:30;8.70;1.00
9768;DHT22;4923;52.520;13.494;2023-04-25T04:49:17;8.80;1.00
9768;DHT22;4923;52.520;13.494;2023-04-25T04:52:04;8.80;1.00
9768;DHT22;4923;52.520;13.494;2023-04-25T04:54:51;8.80;1.00
9768;DHT22;4923;52.520;13.494;2023-04-25T04:57:38;8.90;1.00
9768;DHT22;4923;52.520;13.494;2023-04-25T05:00:26;9.00;1.00
9768;DHT22;4923;52.520;13.494;2023-04-25T05:03:14;9.00;1.00
9768;DHT22;4923;52.520;13.494;2023-04-25T05:06:01;9.00;1.00
9768;DHT22;4923;52.520;13.494;2023-04-25T05:08:48;9.00;1.00
9768;DHT22;4923;52.520;13.494;2023-04-25T05:11:35;9.00;1.00
9768;DHT22;4923;52.520;13.494;2023-04-25T05:14:22;9.00;1.00
9768;DHT22;4923;52.520;13.494;2023-04-25T05:17:10;9.00;1.00
9768;DHT22;4923;52.520;13.494;2023-04-25T05:19:57;9.10;1.00
9768;DHT22;4923;52.520;13.494;2023-04-25T05:22:44;9.00;1.00
9768;DHT22;4923;52.520;13.494;2023-04-25T05:25:31;9.00;1.00
9768;DHT22;4923;52.520;13.494;2023-04-25T05:28:18;9.00;1.00
9768;DHT22;4923;52.520;13.494;2023-04-25T05:31:06;9.00;1.00
9768;DHT22;4923;52.520;13.494;2023-04-25T05:33:54;9.00;1.00
9768;DHT22;4923;52.520;13.494;2023-04-25T05:36:41;9.10;1.00
9768;DHT22;4923;52.520;13.494;2023-04-25T05:39:28;9.10;1.00
9768;DHT22;4923;52.520;13.494;2023-04-25T05:42:15;9.10;1.00
9768;DHT22;4923;52.520;13.494;2023-04-25T05:45:03;9.00;1.00
9768;DHT22;4923;52.520;13.494;2023-04-25T05:47:50;9.20;1.00
9768;DHT22;4923;52.520;13.494;2023-04-25T05:50:38;9.20;1.00
9768;DHT22;4923;52.520;13.494;2023-04-25T05:53:25;9.30;1.00
9768;DHT22;4923;52.520;13.494;2023-04-25T05:56:12;9.30;1.00
9768;DHT22;4923;52.520;13.494;2023-04-25T05:58:59;9.30;1.00
9768;DHT22;4923;52.520;13.494;2023-04-25T06:01:46;9.20;1.00
9768;DHT22;4923;52.520;13.494;2023-04-25T06:04:33;9.20;1.00
9768;DHT22;4923;52.520;13.494;2023-04-25T06:07:21;9.20;1.00
9768;DHT22;4923;52.520;13.494;2023-04-25T06:10:08;9.10;1.00
9768;DHT22;4923;52.520;13.494;2023-04-25T06:12:55;9.30;1.00
9768;DHT22;4923;52.520;13.494;2023-04-25T06:15:42;9.40;1.00
9768;DHT22;4923;52.520;13.494;2023-04-25T06:18:29;9.40;1.00
9768;DHT22;4923;52.520;13.494;2023-04-25T06:21:17;9.30;1.00
9768;DHT22;4923;52.520;13.494;2023-04-25T06:24:05;9.40;1.00
9768;DHT22;4923;52.520;13.494;2023-04-25T06:26:52;9.50;1.00
9768;DHT22;4923;52.520;13.494;2023-04-25T06:29:39;9.50;1.00
9768;DHT22;4923;52.520;13.494;2023-04-25T06:32:26;9.50;1.00
9768;DHT22;4923;52.520;13.494;2023-04-25T06:35:15;9.60;1.00
9768;DHT22;4923;52.520;13.494;2023-04-25T06:38:02;9.70;1.00
9768;DHT22;4923;52.520;13.494;2023-04-25T06:40:50;9.70;1.00
9768;DHT22;4923;52.520;13.494;2023-04-25T06:43:37;9.60;1.00
9768;DHT22;4923;52.520;13.494;2023-04-25T06:46:24;9.50;1.00
9768;DHT22;4923;52.520;13.494;2023-04-25T06:49:11;9.40;1.00
9768;DHT22;4923;52.520;13.494;2023-04-25T06:51:58;9.30;1.00
9768;DHT22;4923;52.520;13.494;2023-04-25T06:54:45;9.40;1.00
9768;DHT22;4923;52.520;13.494;2023-04-25T06:57:33;9.50;1.00
9768;DHT22;4923;52.520;13.494;2023-04-25T07:00:20;9.50;1.00
9768;DHT22;4923;52.520;13.494;2023-04-25T07:03:07;9.40;1.00
9768;DHT22;4923;52.520;13.494;2023-04-25T07:05:57;9.30;1.00
9768;DHT22;4923;52.520;13.494;2023-04-25T07:08:44;9.20;1.00
9768;DHT22;4923;52.520;13.494;2023-04-25T07:11:31;9.20;1.00
9768;DHT22;4923;52.520;13.494;2023-04-25T07:14:19;9.20;1.00
9768;DHT22;4923;52.520;13.494;2023-04-25T07:17:06;9.20;1.00
9768;DHT22;4923;52.520;13.494;2023-04-25T07:19:53;9.20;1.00
9768;DHT22;4923;52.520;13.494;2023-04-25T07:22:39;9.20;1.00
9768;DHT22;4923;52.520;13.494;2023-04-25T07:25:26;9.10;1.00
9768;DHT22;4923;52.520;13.494;2023-04-25T07:28:13;9.00;1.00
9768;DHT22;4923;52.520;13.494;2023-04-25T07:31:02;9.00;1.00
9768;DHT22;4923;52.520;13.494;2023-04-25T07:33:49;8.90;1.00
9768;DHT22;4923;52.520;13.494;2023-04-25T07:36:35;8.90;1.00
9768;DHT22;4923;52.520;13.494;2023-04-25T07:39:22;8.90;1.00
9768;DHT22;4923;52.520;13.494;2023-04-25T07:42:10;9.00;1.00
9768;DHT22;4923;52.520;13.494;2023-04-25T07:44:57;9.20;1.00
9768;DHT22;4923;52.520;13.494;2023-04-25T07:47:45;9.50;1.00
9768;DHT22;4923;52.520;13.494;2023-04-25T07:50:32;9.50;1.00
9768;DHT22;4923;52.520;13.494;2023-04-25T07:53:19;9.80;1.00
9768;DHT22;4923;52.520;13.494;2023-04-25T07:56:06;9.80;1.00
9768;DHT22;4923;52.520;13.494;2023-04-25T07:58:53;9.60;1.00
9768;DHT22;4923;52.520;13.494;2023-04-25T08:01:40;9.70;1.00
9768;DHT22;4923;52.520;13.494;2023-04-25T08:04:28;9.60;1.00
9768;DHT22;4923;52.520;13.494;2023-04-25T08:07:15;9.60;1.00
9768;DHT22;4923;52.520;13.494;2023-04-25T08:10:02;9.80;1.00
9768;DHT22;4923;52.520;13.494;2023-04-25T08:12:49;9.70;1.00
9768;DHT22;4923;52.520;13.494;2023-04-25T08:15:36;9.60;1.00
9768;DHT22;4923;52.520;13.494;2023-04-25T08:18:23;9.60;1.00
9768;DHT22;4923;52.520;13.494;2023-04-25T08:21:11;9.40;1.00
9768;DHT22;4923;52.520;13.494;2023-04-25T08:23:58;9.50;1.00
9768;DHT22;4923;52.520;13.494;2023-04-25T08:26:44;9.80;1.00
9768;DHT22;4923;52.520;13.494;2023-04-25T08:29:31;9.90;1.00
9768;DHT22;4923;52.520;13.494;2023-04-25T08:32:18;9.90;1.00
9768;DHT22;4923;52.520;13.494;2023-04-25T08:35:07;9.80;1.00
9768;DHT22;4923;52.520;13.494;2023-04-25T08:37:55;9.70;1.00
9768;DHT22;4923;52.520;13.494;2023-04-25T08:40:42;9.80;1.00
9768;DHT22;4923;52.520;13.494;2023-04-25T08:43:30;10.00;1.00
9768;DHT22;4923;52.520;13.494;2023-04-25T08:46:18;10.00;1.00
9768;DHT22;4923;52.520;13.494;2023-04-25T08:49:05;9.90;1.00
9768;DHT22;4923;52.520;13.494;2023-04-25T08:51:52;10.10;1.00
9768;DHT22;4923;52.520;13.494;2023-04-25T08:54:43;10.20;1.00
9768;DHT22;4923;52.520;13.494;2023-04-25T08:57:34;10.50;1.00
9768;DHT22;4923;52.520;13.494;2023-04-25T09:00:22;10.30;1.00
9768;DHT22;4923;52.520;13.494;2023-04-25T09:03:10;10.30;1.00
9768;DHT22;4923;52.520;13.494;2023-04-25T09:05:58;10.40;1.00
9768;DHT22;4923;52.520;13.494;2023-04-25T09:08:44;10.80;1.00
9768;DHT22;4923;52.520;13.494;2023-04-25T09:11:33;11.00;1.00
9768;DHT22;4923;52.520;13.494;2023-04-25T09:14:22;10.80;1.00
9768;DHT22;4923;52.520;13.494;2023-04-25T09:17:11;11.20;1.00
9768;DHT22;4923;52.520;13.494;2023-04-25T09:20:08;11.20;1.00
9768;DHT22;4923;52.520;13.494;2023-04-25T09:23:02;11.60;1.00
9768;DHT22;4923;52.520;13.494;2023-04-25T09:25:50;12.00;1.00
9768;DHT22;4923;52.520;13.494;2023-04-25T09:28:38;12.30;1.00
9768;DHT22;4923;52.520;13.494;2023-04-25T09:31:25;12.10;1.00
9768;DHT22;4923;52.520;13.494;2023-04-25T09:34:12;11.90;1.00
9768;DHT22;4923;52.520;13.494;2023-04-25T09:37:01;11.60;1.00
9768;DHT22;4923;52.520;13.494;2023-04-25T09:39:49;11.40;1.00
9768;DHT22;4923;52.520;13.494;2023-04-25T09:42:41;11.50;1.00
9768;DHT22;4923;52.520;13.494;2023-04-25T09:45:30;11.70;1.00
9768;DHT22;4923;52.520;13.494;2023-04-25T09:48:18;11.90;1.00
9768;DHT22;4923;52.520;13.494;2023-04-25T09:51:07;11.60;1.00
9768;DHT22;4923;52.520;13.494;2023-04-25T09:53:54;11.70;1.00
9768;DHT22;4923;52.520;13.494;2023-04-25T09:56:41;11.70;1.00
9768;DHT22;4923;52.520;13.494;2023-04-25T09:59:29;11.20;1.00
9768;DHT22;4923;52.520;13.494;2023-04-25T10:02:21;11.20;1.00
9768;DHT22;4923;52.520;13.494;2023-04-25T10:05:08;11.20;1.00
9768;DHT22;4923;52.520;13.494;2023-04-25T10:07:56;11.00;1.00
9768;DHT22;4923;52.520;13.494;2023-04-25T10:10:44;10.90;1.00
9768;DHT22;4923;52.520;13.494;2023-04-25T10:13:32;11.10;1.00
9768;DHT22;4923;52.520;13.494;2023-04-25T10:16:20;11.30;1.00
9768;DHT22;4923;52.520;13.494;2023-04-25T10:19:09;11.50;1.00
9768;DHT22;4923;52.520;13.494;2023-04-25T10:22:03;11.50;1.00
9768;DHT22;4923;52.520;13.494;2023-04-25T10:24:51;11.50;1.00
9768;DHT22;4923;52.520;13.494;2023-04-25T10:27:39;11.20;1.00
9768;DHT22;4923;52.520;13.494;2023-04-25T10:30:26;11.30;1.00
9768;DHT22;4923;52.520;13.494;2023-04-25T10:33:17;11.10;1.00
9768;DHT22;4923;52.520;13.494;2023-04-25T10:36:13;11.30;1.00
9768;DHT22;4923;52.520;13.494;2023-04-25T10:39:04;11.40;1.00
9768;DHT22;4923;52.520;13.494;2023-04-25T10:41:55;11.50;1.00
9768;DHT22;4923;52.520;13.494;2023-04-25T10:45:01;11.60;1.00
9768;DHT22;4923;52.520;13.494;2023-04-25T10:47:48;11.60;1.00
9768;DHT22;4923;52.520;13.494;2023-04-25T10:50:37;11.60;1.00
9768;DHT22;4923;52.520;13.494;2023-04-25T10:53:30;11.60;1.00
9768;DHT22;4923;52.520;13.494;2023-04-25T10:56:21;11.40;1.00
9768;DHT22;4923;52.520;13.494;2023-04-25T10:59:08;11.60;1.00
9768;DHT22;4923;52.520;13.494;2023-04-25T11:01:56;11.70;1.00
9768;DHT22;4923;52.520;13.494;2023-04-25T11:04:44;11.30;1.00
9768;DHT22;4923;52.520;13.494;2023-04-25T11:07:35;11.40;1.00
9768;DHT22;4923;52.520;13.494;2023-04-25T11:10:27;12.00;1.00
9768;DHT22;4923;52.520;13.494;2023-04-25T11:13:14;12.60;1.00
9768;DHT22;4923;52.520;13.494;2023-04-25T11:16:01;12.60;1.00
9768;DHT22;4923;52.520;13.494;2023-04-25T11:18:47;12.10;1.00
9768;DHT22;4923;52.520;13.494;2023-04-25T11:21:34;12.00;1.00
9768;DHT22;4923;52.520;13.494;2023-04-25T11:24:25;11.70;1.00
9768;DHT22;4923;52.520;13.494;2023-04-25T11:27:14;11.40;1.00
9768;DHT22;4923;52.520;13.494;2023-04-25T11:30:10;10.90;1.00
9768;DHT22;4923;52.520;13.494;2023-04-25T11:32:57;10.50;1.00
9768;DHT22;4923;52.520;13.494;2023-04-25T11:35:44;10.30;1.00
9768;DHT22;4923;52.520;13.494;2023-04-25T11:38:31;10.30;1.00
9768;DHT22;4923;52.520;13.494;2023-04-25T11:41:18;10.30;1.00
9768;DHT22;4923;52.520;13.494;2023-04-25T11:44:07;10.50;1.00
9768;DHT22;4923;52.520;13.494;2023-04-25T11:46:54;10.80;1.00
9768;DHT22;4923;52.520;13.494;2023-04-25T11:49:41;10.80;1.00
9768;DHT22;4923;52.520;13.494;2023-04-25T11:52:38;10.60;1.00
9768;DHT22;4923;52.520;13.494;2023-04-25T11:55:25;10.80;1.00
9768;DHT22;4923;52.520;13.494;2023-04-25T11:58:13;10.70;1.00
9768;DHT22;4923;52.520;13.494;2023-04-25T12:01:02;11.00;1.00
9768;DHT22;4923;52.520;13.494;2023-04-25T12:03:49;11.10;1.00
9768;DHT22;4923;52.520;13.494;2023-04-25T12:06:37;11.20;1.00
9768;DHT22;4923;52.520;13.494;2023-04-25T12:09:29;11.00;1.00
9768;DHT22;4923;52.520;13.494;2023-04-25T12:12:16;11.10;1.00
9768;DHT22;4923;52.520;13.494;2023-04-25T12:15:11;11.10;1.00
9768;DHT22;4923;52.520;13.494;2023-04-25T12:18:01;11.30;1.00
9768;DHT22;4923;52.520;13.494;2023-04-25T12:20:49;11.30;1.00
9768;DHT22;4923;52.520;13.494;2023-04-25T12:23:38;11.30;1.00
9768;DHT22;4923;52.520;13.494;2023-04-25T12:26:25;11.50;1.00
9768;DHT22;4923;52.520;13.494;2023-04-25T12:29:16;11.30;1.00
9768;DHT22;4923;52.520;13.494;2023-04-25T12:32:03;11.00;1.00
9768;DHT22;4923;52.520;13.494;2023-04-25T12:34:51;10.70;1.00
9768;DHT22;4923;52.520;13.494;2023-04-25T12:37:38;10.60;1.00
9768;DHT22;4923;52.520;13.494;2023-04-25T12:40:25;10.90;1.00
9768;DHT22;4923;52.520;13.494;2023-04-25T12:43:12;11.20;1.00
9768;DHT22;4923;52.520;13.494;2023-04-25T12:45:59;11.40;1.00
9768;DHT22;4923;52.520;13.494;2023-04-25T12:48:46;11.80;1.00
9768;DHT22;4923;52.520;13.494;2023-04-25T12:51:34;11.80;1.00
9768;DHT22;4923;52.520;13.494;2023-04-25T12:54:21;11.90;1.00
9768;DHT22;4923;52.520;13.494;2023-04-25T12:57:08;11.70;1.00
9768;DHT22;4923;52.520;13.494;2023-04-25T12:59:55;11.60;1.00
9768;DHT22;4923;52.520;13.494;2023-04-25T13:02:41;11.50;1.00
9768;DHT22;4923;52.520;13.494;2023-04-25T13:05:28;11.50;1.00
9768;DHT22;4923;52.520;13.494;2023-04-25T13:08:17;11.60;1.00
9768;DHT22;4923;52.520;13.494;2023-04-25T13:11:04;11.60;1.00
9768;DHT22;4923;52.520;13.494;2023-04-25T13:13:51;11.50;1.00
9768;DHT22;4923;52.520;13.494;2023-04-25T13:16:38;11.30;1.00
9768;DHT22;4923;52.520;13.494;2023-04-25T13:19:24;11.50;1.00
9768;DHT22;4923;52.520;13.494;2023-04-25T13:22:12;11.50;1.00
9768;DHT22;4923;52.520;13.494;2023-04-25T13:25:02;11.40;1.00
9768;DHT22;4923;52.520;13.494;2023-04-25T13:27:49;11.60;1.00
9768;DHT22;4923;52.520;13.494;2023-04-25T13:30:36;11.80;1.00
9768;DHT22;4923;52.520;13.494;2023-04-25T13:33:23;11.80;1.00
9768;DHT22;4923;52.520;13.494;2023-04-25T13:36:09;11.80;1.00
9768;DHT22;4923;52.520;13.494;2023-04-25T13:38:56;11.70;1.00
9768;DHT22;4923;52.520;13.494;2023-04-25T13:41:45;11.60;1.00
9768;DHT22;4923;52.520;13.494;2023-04-25T13:44:31;11.30;1.00
9768;DHT22;4923;52.520;13.494;2023-04-25T13:47:18;11.10;1.00
9768;DHT22;4923;52.520;13.494;2023-04-25T13:50:06;11.20;1.00
9768;DHT22;4923;52.520;13.494;2023-04-25T13:52:53;11.00;1.00
9768;DHT22;4923;52.520;13.494;2023-04-25T13:55:40;11.10;1.00
9768;DHT22;4923;52.520;13.494;2023-04-25T13:58:28;10.90;1.00
9768;DHT22;4923;52.520;13.494;2023-04-25T14:01:15;11.10;1.00
9768;DHT22;4923;52.520;13.494;2023-04-25T14:04:02;11.00;1.00
9768;DHT22;4923;52.520;13.494;2023-04-25T14:06:50;11.20;1.00
9768;DHT22;4923;52.520;13.494;2023-04-25T14:09:37;11.40;1.00
9768;DHT22;4923;52.520;13.494;2023-04-25T14:12:24;11.60;1.00
9768;DHT22;4923;52.520;13.494;2023-04-25T14:15:13;11.70;1.00
9768;DHT22;4923;52.520;13.494;2023-04-25T14:18:01;11.50;1.00
9768;DHT22;4923;52.520;13.494;2023-04-25T14:20:48;11.30;1.00
9768;DHT22;4923;52.520;13.494;2023-04-25T14:23:35;11.10;1.00
9768;DHT22;4923;52.520;13.494;2023-04-25T14:26:22;10.90;1.00
9768;DHT22;4923;52.520;13.494;2023-04-25T14:29:09;10.70;1.00
9768;DHT22;4923;52.520;13.494;2023-04-25T14:31:58;10.80;1.00
9768;DHT22;4923;52.520;13.494;2023-04-25T14:34:45;10.80;1.00
9768;DHT22;4923;52.520;13.494;2023-04-25T14:37:32;11.00;1.00
9768;DHT22;4923;52.520;13.494;2023-04-25T14:40:19;11.00;1.00
9768;DHT22;4923;52.520;13.494;2023-04-25T14:43:08;10.80;1.00
9768;DHT22;4923;52.520;13.494;2023-04-25T14:45:55;10.60;1.00
9768;DHT22;4923;52.520;13.494;2023-04-25T14:48:43;10.80;1.00
9768;DHT22;4923;52.520;13.494;2023-04-25T14:51:30;10.90;1.00
9768;DHT22;4923;52.520;13.494;2023-04-25T14:54:17;11.10;1.00
9768;DHT22;4923;52.520;13.494;2023-04-25T14:57:04;11.00;1.00
9768;DHT22;4923;52.520;13.494;2023-04-25T14:59:51;10.90;1.00
9768;DHT22;4923;52.520;13.494;2023-04-25T15:02:38;11.00;1.00
9768;DHT22;4923;52.520;13.494;2023-04-25T15:05:27;10.90;1.00
9768;DHT22;4923;52.520;13.494;2023-04-25T15:08:13;10.80;1.00
9768;DHT22;4923;52.520;13.494;2023-04-25T15:11:00;10.60;1.00
9768;DHT22;4923;52.520;13.494;2023-04-25T15:13:48;10.30;1.00
9768;DHT22;4923;52.520;13.494;2023-04-25T15:16:35;10.10;1.00
9768;DHT22;4923;52.520;13.494;2023-04-25T15:19:21;10.00;1.00
9768;DHT22;4923;52.520;13.494;2023-04-25T15:22:10;10.00;1.00
9768;DHT22;4923;52.520;13.494;2023-04-25T15:24:57;10.00;1.00
9768;DHT22;4923;52.520;13.494;2023-04-25T15:27:44;10.00;1.00
9768;DHT22;4923;52.520;13.494;2023-04-25T15:30:33;10.10;1.00
9768;DHT22;4923;52.520;13.494;2023-04-25T15:33:20;10.10;1.00
9768;DHT22;4923;52.520;13.494;2023-04-25T15:36:08;10.30;1.00
9768;DHT22;4923;52.520;13.494;2023-04-25T15:38:57;10.60;1.00
9768;DHT22;4923;52.520;13.494;2023-04-25T15:41:44;11.00;1.00
9768;DHT22;4923;52.520;13.494;2023-04-25T15:44:31;10.90;1.00
9768;DHT22;4923;52.520;13.494;2023-04-25T15:47:17;11.00;1.00
9768;DHT22;4923;52.520;13.494;2023-04-25T15:50:06;10.80;1.00
9768;DHT22;4923;52.520;13.494;2023-04-25T15:52:54;10.50;1.00
9768;DHT22;4923;52.520;13.494;2023-04-25T15:55:42;10.50;1.00
9768;DHT22;4923;52.520;13.494;2023-04-25T15:58:29;10.50;1.00
9768;DHT22;4923;52.520;13.494;2023-04-25T16:01:16;10.80;1.00
9768;DHT22;4923;52.520;13.494;2023-04-25T16:04:03;10.50;1.00
9768;DHT22;4923;52.520;13.494;2023-04-25T16:06:50;10.20;1.00
9768;DHT22;4923;52.520;13.494;2023-04-25T16:09:36;10.20;1.00
9768;DHT22;4923;52.520;13.494;2023-04-25T16:12:25;10.30;1.00
9768;DHT22;4923;52.520;13.494;2023-04-25T16:15:13;10.40;1.00
9768;DHT22;4923;52.520;13.494;2023-04-25T16:18:00;10.50;1.00
9768;DHT22;4923;52.520;13.494;2023-04-25T16:20:46;10.40;1.00
9768;DHT22;4923;52.520;13.494;2023-04-25T16:23:33;10.40;1.00
9768;DHT22;4923;52.520;13.494;2023-04-25T16:26:20;10.40;1.00
9768;DHT22;4923;52.520;13.494;2023-04-25T16:29:09;10.30;1.00
9768;DHT22;4923;52.520;13.494;2023-04-25T16:31:56;10.20;1.00
9768;DHT22;4923;52.520;13.494;2023-04-25T16:34:43;10.00;1.00
9768;DHT22;4923;52.520;13.494;2023-04-25T16:37:29;10.00;1.00
9768;DHT22;4923;52.520;13.494;2023-04-25T16:40:16;9.90;1.00
9768;DHT22;4923;52.520;13.494;2023-04-25T16:43:03;9.90;1.00
9768;DHT22;4923;52.520;13.494;2023-04-25T16:45:51;9.90;1.00
9768;DHT22;4923;52.520;13.494;2023-04-25T16:48:38;9.90;1.00
9768;DHT22;4923;52.520;13.494;2023-04-25T16:51:25;10.00;1.00
9768;DHT22;4923;52.520;13.494;2023-04-25T16:54:12;9.90;1.00
9768;DHT22;4923;52.520;13.494;2023-04-25T16:56:59;9.80;1.00
9768;DHT22;4923;52.520;13.494;2023-04-25T16:59:46;9.90;1.00
9768;DHT22;4923;52.520;13.494;2023-04-25T17:02:34;10.20;1.00
9768;DHT22;4923;52.520;13.494;2023-04-25T17:05:23;11.50;1.00
9768;DHT22;4923;52.520;13.494;2023-04-25T17:08:09;11.70;1.00
9768;DHT22;4923;52.520;13.494;2023-04-25T17:10:56;10.90;1.00
9768;DHT22;4923;52.520;13.494;2023-04-25T17:13:44;11.00;1.00
9768;DHT22;4923;52.520;13.494;2023-04-25T17:16:35;11.00;1.00
9768;DHT22;4923;52.520;13.494;2023-04-25T17:19:23;11.70;1.00
9768;DHT22;4923;52.520;13.494;2023-04-25T17:22:10;11.90;1.00
9768;DHT22;4923;52.520;13.494;2023-04-25T17:24:57;11.40;1.00
9768;DHT22;4923;52.520;13.494;2023-04-25T17:27:44;12.00;1.00
9768;DHT22;4923;52.520;13.494;2023-04-25T17:30:31;12.10;1.00
9768;DHT22;4923;52.520;13.494;2023-04-25T17:33:19;11.70;1.00
9768;DHT22;4923;52.520;13.494;2023-04-25T17:36:08;11.30;1.00
9768;DHT22;4923;52.520;13.494;2023-04-25T17:38:55;11.40;1.00
9768;DHT22;4923;52.520;13.494;2023-04-25T17:41:42;11.10;1.00
9768;DHT22;4923;52.520;13.494;2023-04-25T17:44:29;10.50;1.00
9768;DHT22;4923;52.520;13.494;2023-04-25T17:47:16;10.30;1.00
9768;DHT22;4923;52.520;13.494;2023-04-25T17:50:03;9.90;1.00
9768;DHT22;4923;52.520;13.494;2023-04-25T17:52:51;9.60;1.00
9768;DHT22;4923;52.520;13.494;2023-04-25T17:55:38;9.50;1.00
9768;DHT22;4923;52.520;13.494;2023-04-25T17:58:28;9.30;1.00
9768;DHT22;4923;52.520;13.494;2023-04-25T18:01:15;9.30;1.00
9768;DHT22;4923;52.520;13.494;2023-04-25T18:04:02;9.40;1.00
9768;DHT22;4923;52.520;13.494;2023-04-25T18:06:49;9.30;1.00
9768;DHT22;4923;52.520;13.494;2023-04-25T18:09:37;9.10;1.00
9768;DHT22;4923;52.520;13.494;2023-04-25T18:12:24;8.90;1.00
9768;DHT22;4923;52.520;13.494;2023-04-25T18:15:11;8.80;1.00
9768;DHT22;4923;52.520;13.494;2023-04-25T18:17:58;8.70;1.00
9768;DHT22;4923;52.520;13.494;2023-04-25T18:20:47;8.60;1.00
9768;DHT22;4923;52.520;13.494;2023-04-25T18:23:34;8.60;1.00